sensor_id;sensor_type;location;lat;lon;timestamp;temperature;humidity
53802;DHT22;39709;53.334;6.534;2022-11-14T00:00:41;7.90;99.90
53802;DHT22;39709;53.334;6.534;2022-11-14T00:03:08;8.30;99.90
53802;DHT22;39709;53.334;6.534;2022-11-14T00:05:42;8.10;99.90
53802;DHT22;39709;53.334;6.534;2022-11-14T00:08:20;8.30;99.90
53802;DHT22;39709;53.334;6.534;2022-11-14T00:10:48;8.20;99.90
53802;DHT22;39709;53.334;6.534;2022-11-14T00:13:14;8.30;99.90
53802;DHT22;39709;53.334;6.534;2022-11-14T00:15:41;8.40;99.90
53802;DHT22;39709;53.334;6.534;2022-11-14T00:18:06;8.50;99.90
53802;DHT22;39709;53.334;6.534;2022-11-14T00:20:32;8.50;99.90
53802;DHT22;39709;53.334;6.534;2022-11-14T00:22:58;8.50;99.90
53802;DHT22;39709;53.334;6.534;2022-11-14T00:25:24;8.30;99.90
53802;DHT22;39709;53.334;6.534;2022-11-14T00:27:49;8.50;99.90
53802;DHT22;39709;53.334;6.534;2022-11-14T00:30:15;8.20;99.90
53802;DHT22;39709;53.334;6.534;2022-11-14T00:32:41;8.10;99.90
53802;DHT22;39709;53.334;6.534;2022-11-14T00:35:07;8.00;99.90
53802;DHT22;39709;53.334;6.534;2022-11-14T00:37:34;8.30;99.90
53802;DHT22;39709;53.334;6.534;2022-11-14T00:40:00;8.10;99.90
53802;DHT22;39709;53.334;6.534;2022-11-14T00:42:25;8.10;99.90
53802;DHT22;39709;53.334;6.534;2022-11-14T00:44:51;8.20;99.90
53802;DHT22;39709;53.334;6.534;2022-11-14T00:47:17;8.10;99.90
53802;DHT22;39709;53.334;6.534;2022-11-14T00:49:42;8.10;99.90
53802;DHT22;39709;53.334;6.534;2022-11-14T00:52:08;8.40;99.90
53802;DHT22;39709;53.334;6.534;2022-11-14T00:54:34;8.30;99.90
53802;DHT22;39709;53.334;6.534;2022-11-14T00:56:59;8.30;99.90
53802;DHT22;39709;53.334;6.534;2022-11-14T00:59:25;8.50;99.90
53802;DHT22;39709;53.334;6.534;2022-11-14T01:01:51;8.80;99.90
53802;DHT22;39709;53.334;6.534;2022-11-14T01:04:16;8.70;99.90
53802;DHT22;39709;53.334;6.534;2022-11-14T01:06:42;8.40;99.90
53802;DHT22;39709;53.334;6.534;2022-11-14T01:09:08;8.40;99.90
53802;DHT22;39709;53.334;6.534;2022-11-14T01:11:33;8.40;99.90
53802;DHT22;39709;53.334;6.534;2022-11-14T01:13:59;8.10;99.90
53802;DHT22;39709;53.334;6.534;2022-11-14T01:16:25;8.10;99.90
53802;DHT22;39709;53.334;6.534;2022-11-14T01:18:50;8.30;99.90
53802;DHT22;39709;53.334;6.534;2022-11-14T01:21:16;8.50;99.90
53802;DHT22;39709;53.334;6.534;2022-11-14T01:23:42;8.30;99.90
53802;DHT22;39709;53.334;6.534;2022-11-14T01:26:11;8.20;99.90
53802;DHT22;39709;53.334;6.534;2022-11-14T01:28:37;8.40;99.90
53802;DHT22;39709;53.334;6.534;2022-11-14T01:31:14;8.60;99.90
53802;DHT22;39709;53.334;6.534;2022-11-14T01:33:41;8.40;99.90
53802;DHT22;39709;53.334;6.534;2022-11-14T01:36:08;8.10;99.90
53802;DHT22;39709;53.334;6.534;2022-11-14T01:38:34;8.10;99.90
53802;DHT22;39709;53.334;6.534;2022-11-14T01:41:00;8.20;99.90
53802;DHT22;39709;53.334;6.534;2022-11-14T01:43:32;8.30;99.90
53802;DHT22;39709;53.334;6.534;2022-11-14T01:48:50;7.90;99.90
53802;DHT22;39709;53.334;6.534;2022-11-14T01:51:48;7.80;99.90
53802;DHT22;39709;53.334;6.534;2022-11-14T01:54:27;7.60;99.90
53802;DHT22;39709;53.334;6.534;2022-11-14T01:56:57;7.70;99.90
53802;DHT22;39709;53.334;6.534;2022-11-14T01:59:33;7.70;99.90
53802;DHT22;39709;53.334;6.534;2022-11-14T02:02:04;7.80;99.90
53802;DHT22;39709;53.334;6.534;2022-11-14T02:04:34;7.60;99.90
53802;DHT22;39709;53.334;6.534;2022-11-14T02:07:03;7.70;99.90
53802;DHT22;39709;53.334;6.534;2022-11-14T02:09:33;7.70;99.90
53802;DHT22;39709;53.334;6.534;2022-11-14T02:12:00;7.60;99.90
53802;DHT22;39709;53.334;6.534;2022-11-14T02:14:27;7.70;99.90
53802;DHT22;39709;53.334;6.534;2022-11-14T02:16:53;7.40;99.90
53802;DHT22;39709;53.334;6.534;2022-11-14T02:19:19;7.30;99.90
53802;DHT22;39709;53.334;6.534;2022-11-14T02:21:45;7.50;99.90
53802;DHT22;39709;53.334;6.534;2022-11-14T02:24:11;7.10;99.90
53802;DHT22;39709;53.334;6.534;2022-11-14T02:26:39;7.00;99.90
53802;DHT22;39709;53.334;6.534;2022-11-14T02:29:06;7.00;99.90
53802;DHT22;39709;53.334;6.534;2022-11-14T02:31:33;6.90;99.90
53802;DHT22;39709;53.334;6.534;2022-11-14T02:33:58;7.30;99.90
53802;DHT22;39709;53.334;6.534;2022-11-14T02:36:24;7.00;99.90
53802;DHT22;39709;53.334;6.534;2022-11-14T02:38:50;7.10;99.90
53802;DHT22;39709;53.334;6.534;2022-11-14T02:41:16;6.90;99.90
53802;DHT22;39709;53.334;6.534;2022-11-14T02:43:41;6.70;99.90
53802;DHT22;39709;53.334;6.534;2022-11-14T02:46:07;7.00;99.90
53802;DHT22;39709;53.334;6.534;2022-11-14T02:48:33;6.80;99.90
53802;DHT22;39709;53.334;6.534;2022-11-14T02:50:58;7.00;99.90
53802;DHT22;39709;53.334;6.534;2022-11-14T02:53:24;6.70;99.90
53802;DHT22;39709;53.334;6.534;2022-11-14T02:55:49;6.70;99.90
53802;DHT22;39709;53.334;6.534;2022-11-14T02:58:15;6.70;99.90
53802;DHT22;39709;53.334;6.534;2022-11-14T03:00:41;7.00;99.90
53802;DHT22;39709;53.334;6.534;2022-11-14T03:03:06;7.30;99.90
53802;DHT22;39709;53.334;6.534;2022-11-14T03:05:32;7.30;99.90
53802;DHT22;39709;53.334;6.534;2022-11-14T03:07:58;7.40;99.90
53802;DHT22;39709;53.334;6.534;2022-11-14T03:10:24;7.60;99.90
53802;DHT22;39709;53.334;6.534;2022-11-14T03:12:56;7.30;99.90
53802;DHT22;39709;53.334;6.534;2022-11-14T03:15:23;7.50;99.90
53802;DHT22;39709;53.334;6.534;2022-11-14T03:17:49;7.70;99.90
53802;DHT22;39709;53.334;6.534;2022-11-14T03:20:15;8.00;99.90
53802;DHT22;39709;53.334;6.534;2022-11-14T03:22:41;7.40;99.90
53802;DHT22;39709;53.334;6.534;2022-11-14T03:25:07;7.50;99.90
53802;DHT22;39709;53.334;6.534;2022-11-14T03:27:33;7.70;99.90
53802;DHT22;39709;53.334;6.534;2022-11-14T03:29:58;7.50;99.90
53802;DHT22;39709;53.334;6.534;2022-11-14T03:32:24;7.30;99.90
53802;DHT22;39709;53.334;6.534;2022-11-14T03:34:50;7.70;99.90
53802;DHT22;39709;53.334;6.534;2022-11-14T03:37:15;7.80;99.90
53802;DHT22;39709;53.334;6.534;2022-11-14T03:39:41;7.40;99.90
53802;DHT22;39709;53.334;6.534;2022-11-14T03:42:07;7.90;99.90
53802;DHT22;39709;53.334;6.534;2022-11-14T03:44:34;8.00;99.90
53802;DHT22;39709;53.334;6.534;2022-11-14T03:47:00;8.00;99.90
53802;DHT22;39709;53.334;6.534;2022-11-14T03:49:25;7.90;99.90
53802;DHT22;39709;53.334;6.534;2022-11-14T03:51:51;7.70;99.90
53802;DHT22;39709;53.334;6.534;2022-11-14T03:54:17;7.80;99.90
53802;DHT22;39709;53.334;6.534;2022-11-14T03:56:42;7.70;99.90
53802;DHT22;39709;53.334;6.534;2022-11-14T03:59:08;7.90;99.90
53802;DHT22;39709;53.334;6.534;2022-11-14T04:01:33;7.70;99.90
53802;DHT22;39709;53.334;6.534;2022-11-14T04:03:59;7.70;99.90
53802;DHT22;39709;53.334;6.534;2022-11-14T04:06:25;7.50;99.90
53802;DHT22;39709;53.334;6.534;2022-11-14T04:08:51;7.60;99.90
53802;DHT22;39709;53.334;6.534;2022-11-14T04:11:17;7.50;99.90
53802;DHT22;39709;53.334;6.534;2022-11-14T04:13:43;7.60;99.90
53802;DHT22;39709;53.334;6.534;2022-11-14T04:16:08;7.40;99.90
53802;DHT22;39709;53.334;6.534;2022-11-14T04:18:34;7.40;99.90
53802;DHT22;39709;53.334;6.534;2022-11-14T04:21:00;7.00;99.90
53802;DHT22;39709;53.334;6.534;2022-11-14T04:23:25;6.60;99.90
53802;DHT22;39709;53.334;6.534;2022-11-14T04:25:51;6.70;99.90
53802;DHT22;39709;53.334;6.534;2022-11-14T04:28:16;6.70;99.90
53802;DHT22;39709;53.334;6.534;2022-11-14T04:30:42;7.10;99.90
53802;DHT22;39709;53.334;6.534;2022-11-14T04:33:09;6.60;99.90
53802;DHT22;39709;53.334;6.534;2022-11-14T04:35:35;6.90;99.90
53802;DHT22;39709;53.334;6.534;2022-11-14T04:38:01;7.10;99.90
53802;DHT22;39709;53.334;6.534;2022-11-14T04:40:27;7.10;99.90
53802;DHT22;39709;53.334;6.534;2022-11-14T04:42:52;7.10;99.90
53802;DHT22;39709;53.334;6.534;2022-11-14T04:45:18;7.20;99.90
53802;DHT22;39709;53.334;6.534;2022-11-14T04:47:44;7.20;99.90
53802;DHT22;39709;53.334;6.534;2022-11-14T04:50:09;7.10;99.90
53802;DHT22;39709;53.334;6.534;2022-11-14T04:52:35;7.20;99.90
53802;DHT22;39709;53.334;6.534;2022-11-14T04:55:01;7.10;99.90
53802;DHT22;39709;53.334;6.534;2022-11-14T04:57:27;7.30;99.90
53802;DHT22;39709;53.334;6.534;2022-11-14T04:59:52;6.90;99.90
53802;DHT22;39709;53.334;6.534;2022-11-14T05:02:18;7.00;99.90
53802;DHT22;39709;53.334;6.534;2022-11-14T05:04:44;7.30;99.90
53802;DHT22;39709;53.334;6.534;2022-11-14T05:07:12;7.20;99.90
53802;DHT22;39709;53.334;6.534;2022-11-14T05:09:38;7.30;99.90
53802;DHT22;39709;53.334;6.534;2022-11-14T05:12:04;6.90;99.90
53802;DHT22;39709;53.334;6.534;2022-11-14T05:14:30;7.10;99.90
53802;DHT22;39709;53.334;6.534;2022-11-14T05:16:56;7.00;99.90
53802;DHT22;39709;53.334;6.534;2022-11-14T05:19:22;7.10;99.90
53802;DHT22;39709;53.334;6.534;2022-11-14T05:21:48;6.90;99.90
53802;DHT22;39709;53.334;6.534;2022-11-14T05:24:14;7.00;99.90
53802;DHT22;39709;53.334;6.534;2022-11-14T05:26:39;6.70;99.90
53802;DHT22;39709;53.334;6.534;2022-11-14T05:29:05;6.60;99.90
53802;DHT22;39709;53.334;6.534;2022-11-14T05:31:31;6.40;99.90
53802;DHT22;39709;53.334;6.534;2022-11-14T05:33:56;6.30;99.90
53802;DHT22;39709;53.334;6.534;2022-11-14T05:36:22;6.70;99.90
53802;DHT22;39709;53.334;6.534;2022-11-14T05:38:48;6.70;99.90
53802;DHT22;39709;53.334;6.534;2022-11-14T05:41:16;6.70;99.90
53802;DHT22;39709;53.334;6.534;2022-11-14T05:43:42;6.90;99.90
53802;DHT22;39709;53.334;6.534;2022-11-14T05:46:13;6.80;99.90
53802;DHT22;39709;53.334;6.534;2022-11-14T05:48:40;7.20;99.90
53802;DHT22;39709;53.334;6.534;2022-11-14T05:51:08;7.00;99.90
53802;DHT22;39709;53.334;6.534;2022-11-14T05:53:34;7.30;99.90
53802;DHT22;39709;53.334;6.534;2022-11-14T05:56:01;6.60;99.90
53802;DHT22;39709;53.334;6.534;2022-11-14T05:58:28;6.60;99.90
53802;DHT22;39709;53.334;6.534;2022-11-14T06:01:07;6.50;99.90
53802;DHT22;39709;53.334;6.534;2022-11-14T06:03:35;6.20;99.90
53802;DHT22;39709;53.334;6.534;2022-11-14T06:06:03;6.40;99.90
53802;DHT22;39709;53.334;6.534;2022-11-14T06:08:30;6.20;99.90
53802;DHT22;39709;53.334;6.534;2022-11-14T06:10:58;6.30;99.90
53802;DHT22;39709;53.334;6.534;2022-11-14T06:13:25;6.30;99.90
53802;DHT22;39709;53.334;6.534;2022-11-14T06:15:51;6.20;99.90
53802;DHT22;39709;53.334;6.534;2022-11-14T06:18:17;6.40;99.90
53802;DHT22;39709;53.334;6.534;2022-11-14T06:20:42;6.00;99.90
53802;DHT22;39709;53.334;6.534;2022-11-14T06:23:08;6.10;99.90
53802;DHT22;39709;53.334;6.534;2022-11-14T06:25:34;6.30;99.90
53802;DHT22;39709;53.334;6.534;2022-11-14T06:27:59;6.10;99.90
53802;DHT22;39709;53.334;6.534;2022-11-14T06:30:25;6.30;99.90
53802;DHT22;39709;53.334;6.534;2022-11-14T06:32:56;5.90;99.90
53802;DHT22;39709;53.334;6.534;2022-11-14T06:35:22;6.30;99.90
53802;DHT22;39709;53.334;6.534;2022-11-14T06:37:48;5.90;99.90
53802;DHT22;39709;53.334;6.534;2022-11-14T06:40:14;6.10;99.90
53802;DHT22;39709;53.334;6.534;2022-11-14T06:42:39;6.70;99.90
53802;DHT22;39709;53.334;6.534;2022-11-14T06:45:05;6.60;99.90
53802;DHT22;39709;53.334;6.534;2022-11-14T06:47:31;6.20;99.90
53802;DHT22;39709;53.334;6.534;2022-11-14T06:49:57;6.60;99.90
53802;DHT22;39709;53.334;6.534;2022-11-14T06:52:22;6.50;99.90
53802;DHT22;39709;53.334;6.534;2022-11-14T06:54:50;6.20;99.90
53802;DHT22;39709;53.334;6.534;2022-11-14T06:57:15;5.90;99.90
53802;DHT22;39709;53.334;6.534;2022-11-14T06:59:41;6.00;99.90
53802;DHT22;39709;53.334;6.534;2022-11-14T07:02:11;5.90;99.90
53802;DHT22;39709;53.334;6.534;2022-11-14T07:04:36;6.00;99.90
53802;DHT22;39709;53.334;6.534;2022-11-14T07:07:02;6.10;99.90
53802;DHT22;39709;53.334;6.534;2022-11-14T07:09:28;6.10;99.90
53802;DHT22;39709;53.334;6.534;2022-11-14T07:11:53;6.00;99.90
53802;DHT22;39709;53.334;6.534;2022-11-14T07:14:19;6.40;99.90
53802;DHT22;39709;53.334;6.534;2022-11-14T07:16:45;6.30;99.90
53802;DHT22;39709;53.334;6.534;2022-11-14T07:19:11;6.80;99.90
53802;DHT22;39709;53.334;6.534;2022-11-14T07:21:37;6.40;99.90
53802;DHT22;39709;53.334;6.534;2022-11-14T07:24:03;6.20;99.90
53802;DHT22;39709;53.334;6.534;2022-11-14T07:26:29;6.30;99.90
53802;DHT22;39709;53.334;6.534;2022-11-14T07:28:55;6.50;99.90
53802;DHT22;39709;53.334;6.534;2022-11-14T07:31:20;6.10;99.90
53802;DHT22;39709;53.334;6.534;2022-11-14T07:33:46;6.60;99.90
53802;DHT22;39709;53.334;6.534;2022-11-14T07:36:13;6.20;99.90
53802;DHT22;39709;53.334;6.534;2022-11-14T07:38:39;6.20;99.90
53802;DHT22;39709;53.334;6.534;2022-11-14T07:41:14;6.60;99.90
53802;DHT22;39709;53.334;6.534;2022-11-14T07:43:40;6.70;99.90
53802;DHT22;39709;53.334;6.534;2022-11-14T07:46:10;6.70;99.90
53802;DHT22;39709;53.334;6.534;2022-11-14T07:48:36;6.70;99.90
53802;DHT22;39709;53.334;6.534;2022-11-14T07:51:05;6.50;99.90
53802;DHT22;39709;53.334;6.534;2022-11-14T07:53:31;6.10;99.90
53802;DHT22;39709;53.334;6.534;2022-11-14T07:56:02;6.20;99.90
53802;DHT22;39709;53.334;6.534;2022-11-14T07:58:27;6.30;99.90
53802;DHT22;39709;53.334;6.534;2022-11-14T08:00:53;6.30;99.90
53802;DHT22;39709;53.334;6.534;2022-11-14T08:03:20;6.80;99.90
53802;DHT22;39709;53.334;6.534;2022-11-14T08:05:46;7.00;99.90
53802;DHT22;39709;53.334;6.534;2022-11-14T08:08:12;6.50;99.90
53802;DHT22;39709;53.334;6.534;2022-11-14T08:10:37;6.80;99.90
53802;DHT22;39709;53.334;6.534;2022-11-14T08:13:04;6.60;99.90
53802;DHT22;39709;53.334;6.534;2022-11-14T08:15:31;6.60;99.90
53802;DHT22;39709;53.334;6.534;2022-11-14T08:18:00;6.60;99.90
53802;DHT22;39709;53.334;6.534;2022-11-14T08:20:27;6.60;99.90
53802;DHT22;39709;53.334;6.534;2022-11-14T08:22:53;6.10;99.90
53802;DHT22;39709;53.334;6.534;2022-11-14T08:25:19;5.90;99.90
53802;DHT22;39709;53.334;6.534;2022-11-14T08:27:45;6.00;99.90
53802;DHT22;39709;53.334;6.534;2022-11-14T08:30:11;6.00;99.90
53802;DHT22;39709;53.334;6.534;2022-11-14T08:32:37;5.80;99.90
53802;DHT22;39709;53.334;6.534;2022-11-14T08:35:03;6.00;99.90
53802;DHT22;39709;53.334;6.534;2022-11-14T08:37:28;5.90;99.90
53802;DHT22;39709;53.334;6.534;2022-11-14T08:39:54;6.00;99.90
53802;DHT22;39709;53.334;6.534;2022-11-14T08:42:20;6.00;99.90
53802;DHT22;39709;53.334;6.534;2022-11-14T08:44:45;5.90;99.90
53802;DHT22;39709;53.334;6.534;2022-11-14T08:47:11;6.20;99.90
53802;DHT22;39709;53.334;6.534;2022-11-14T08:49:37;6.40;99.90
53802;DHT22;39709;53.334;6.534;2022-11-14T08:52:02;6.20;99.90
53802;DHT22;39709;53.334;6.534;2022-11-14T08:54:28;6.30;99.90
53802;DHT22;39709;53.334;6.534;2022-11-14T08:56:54;6.30;99.90
53802;DHT22;39709;53.334;6.534;2022-11-14T08:59:19;6.20;99.90
53802;DHT22;39709;53.334;6.534;2022-11-14T09:01:45;6.50;99.90
53802;DHT22;39709;53.334;6.534;2022-11-14T09:04:11;6.60;99.90
53802;DHT22;39709;53.334;6.534;2022-11-14T09:06:36;6.80;99.90
53802;DHT22;39709;53.334;6.534;2022-11-14T09:09:02;7.20;99.90
53802;DHT22;39709;53.334;6.534;2022-11-14T09:11:28;6.90;99.90
53802;DHT22;39709;53.334;6.534;2022-11-14T09:13:54;7.30;99.90
53802;DHT22;39709;53.334;6.534;2022-11-14T09:16:19;7.10;99.90
53802;DHT22;39709;53.334;6.534;2022-11-14T09:18:45;7.20;99.90
53802;DHT22;39709;53.334;6.534;2022-11-14T09:21:11;7.30;99.90
53802;DHT22;39709;53.334;6.534;2022-11-14T09:23:37;7.60;99.90
53802;DHT22;39709;53.334;6.534;2022-11-14T09:26:04;7.40;99.90
53802;DHT22;39709;53.334;6.534;2022-11-14T09:28:30;7.70;99.90
53802;DHT22;39709;53.334;6.534;2022-11-14T09:31:02;7.40;99.90
53802;DHT22;39709;53.334;6.534;2022-11-14T09:33:29;6.90;99.90
53802;DHT22;39709;53.334;6.534;2022-11-14T09:35:56;7.10;99.90
53802;DHT22;39709;53.334;6.534;2022-11-14T09:38:22;7.20;99.90
53802;DHT22;39709;53.334;6.534;2022-11-14T09:44:00;7.50;99.90
53802;DHT22;39709;53.334;6.534;2022-11-14T09:46:36;7.70;99.90
53802;DHT22;39709;53.334;6.534;2022-11-14T09:49:10;7.60;99.90
53802;DHT22;39709;53.334;6.534;2022-11-14T09:51:48;8.00;99.90
53802;DHT22;39709;53.334;6.534;2022-11-14T09:54:26;7.80;99.90
53802;DHT22;39709;53.334;6.534;2022-11-14T09:56:53;7.90;99.90
53802;DHT22;39709;53.334;6.534;2022-11-14T09:59:18;8.20;99.90
53802;DHT22;39709;53.334;6.534;2022-11-14T10:01:54;8.40;99.90
53802;DHT22;39709;53.334;6.534;2022-11-14T10:05:00;8.50;99.90
53802;DHT22;39709;53.334;6.534;2022-11-14T10:15:58;8.20;99.90
53802;DHT22;39709;53.334;6.534;2022-11-14T10:27:05;8.50;99.90
53802;DHT22;39709;53.334;6.534;2022-11-14T10:29:59;8.60;99.90
53802;DHT22;39709;53.334;6.534;2022-11-14T10:32:34;8.70;99.90
53802;DHT22;39709;53.334;6.534;2022-11-14T10:42:45;8.40;99.90
53802;DHT22;39709;53.334;6.534;2022-11-14T10:48:16;8.50;99.90
53802;DHT22;39709;53.334;6.534;2022-11-14T10:50:51;7.70;99.90
53802;DHT22;39709;53.334;6.534;2022-11-14T10:53:27;8.20;99.90
53802;DHT22;39709;53.334;6.534;2022-11-14T10:55:55;8.20;99.90
53802;DHT22;39709;53.334;6.534;2022-11-14T10:58:22;8.60;99.90
53802;DHT22;39709;53.334;6.534;2022-11-14T11:00:48;8.90;99.90
53802;DHT22;39709;53.334;6.534;2022-11-14T11:03:14;8.80;99.90
53802;DHT22;39709;53.334;6.534;2022-11-14T11:05:46;8.80;99.90
53802;DHT22;39709;53.334;6.534;2022-11-14T11:08:16;8.60;99.90
53802;DHT22;39709;53.334;6.534;2022-11-14T11:11:01;8.60;99.90
53802;DHT22;39709;53.334;6.534;2022-11-14T11:13:53;8.50;99.90
53802;DHT22;39709;53.334;6.534;2022-11-14T11:16:24;8.80;99.90
53802;DHT22;39709;53.334;6.534;2022-11-14T11:18:50;8.70;99.90
53802;DHT22;39709;53.334;6.534;2022-11-14T11:21:19;9.00;99.90
53802;DHT22;39709;53.334;6.534;2022-11-14T11:23:52;8.80;99.90
53802;DHT22;39709;53.334;6.534;2022-11-14T11:26:25;8.20;99.90
53802;DHT22;39709;53.334;6.534;2022-11-14T11:29:06;8.70;99.90
53802;DHT22;39709;53.334;6.534;2022-11-14T11:34:14;8.50;99.90
53802;DHT22;39709;53.334;6.534;2022-11-14T11:36:45;8.20;99.90
53802;DHT22;39709;53.334;6.534;2022-11-14T11:39:22;8.10;99.90
53802;DHT22;39709;53.334;6.534;2022-11-14T11:41:50;7.70;99.90
53802;DHT22;39709;53.334;6.534;2022-11-14T11:44:20;7.70;99.90
53802;DHT22;39709;53.334;6.534;2022-11-14T11:46:56;7.70;99.90
53802;DHT22;39709;53.334;6.534;2022-11-14T11:51:55;7.40;51.80
53802;DHT22;39709;53.334;6.534;2022-11-14T11:54:29;7.90;99.90
53802;DHT22;39709;53.334;6.534;2022-11-14T11:56:59;8.40;99.90
53802;DHT22;39709;53.334;6.534;2022-11-14T11:59:41;8.00;99.90
53802;DHT22;39709;53.334;6.534;2022-11-14T12:02:21;8.60;99.90
53802;DHT22;39709;53.334;6.534;2022-11-14T12:04:50;8.10;99.90
53802;DHT22;39709;53.334;6.534;2022-11-14T12:07:18;8.10;99.90
53802;DHT22;39709;53.334;6.534;2022-11-14T12:09:45;8.30;99.90
53802;DHT22;39709;53.334;6.534;2022-11-14T12:31:34;8.20;75.20
53802;DHT22;39709;53.334;6.534;2022-11-14T12:34:12;8.40;99.90
53802;DHT22;39709;53.334;6.534;2022-11-14T12:36:43;8.60;99.90
53802;DHT22;39709;53.334;6.534;2022-11-14T12:39:21;9.20;99.90
53802;DHT22;39709;53.334;6.534;2022-11-14T12:41:48;9.00;99.90
53802;DHT22;39709;53.334;6.534;2022-11-14T12:52:48;8.50;1.00
53802;DHT22;39709;53.334;6.534;2022-11-14T12:58:06;8.50;50.90
53802;DHT22;39709;53.334;6.534;2022-11-14T13:08:49;8.80;99.90
53802;DHT22;39709;53.334;6.534;2022-11-14T13:11:39;8.80;99.90
53802;DHT22;39709;53.334;6.534;2022-11-14T13:14:24;8.40;65.90
53802;DHT22;39709;53.334;6.534;2022-11-14T13:17:26;8.80;99.90
53802;DHT22;39709;53.334;6.534;2022-11-14T13:20:33;9.00;99.90
53802;DHT22;39709;53.334;6.534;2022-11-14T13:31:17;9.20;99.90
53802;DHT22;39709;53.334;6.534;2022-11-14T13:39:02;8.90;99.90
53802;DHT22;39709;53.334;6.534;2022-11-14T13:44:37;8.40;99.90
53802;DHT22;39709;53.334;6.534;2022-11-14T13:50:09;8.60;99.90
53802;DHT22;39709;53.334;6.534;2022-11-14T13:52:45;8.30;70.00
53802;DHT22;39709;53.334;6.534;2022-11-14T13:55:35;8.20;30.30
53802;DHT22;39709;53.334;6.534;2022-11-14T14:03:50;8.40;99.90
53802;DHT22;39709;53.334;6.534;2022-11-14T14:06:46;8.80;99.90
53802;DHT22;39709;53.334;6.534;2022-11-14T14:16:52;9.10;99.90
53802;DHT22;39709;53.334;6.534;2022-11-14T14:19:42;9.10;99.90
53802;DHT22;39709;53.334;6.534;2022-11-14T14:28:05;8.30;99.90
53802;DHT22;39709;53.334;6.534;2022-11-14T14:30:33;8.20;90.70
53802;DHT22;39709;53.334;6.534;2022-11-14T14:33:13;8.10;97.80
53802;DHT22;39709;53.334;6.534;2022-11-14T14:35:48;8.00;39.60
53802;DHT22;39709;53.334;6.534;2022-11-14T14:38:23;8.10;34.50
53802;DHT22;39709;53.334;6.534;2022-11-14T14:40:53;7.90;1.00
53802;DHT22;39709;53.334;6.534;2022-11-14T14:43:40;7.70;1.00
53802;DHT22;39709;53.334;6.534;2022-11-14T14:46:06;7.80;1.00
53802;DHT22;39709;53.334;6.534;2022-11-14T14:48:35;7.60;1.00
53802;DHT22;39709;53.334;6.534;2022-11-14T14:51:03;7.60;1.00
53802;DHT22;39709;53.334;6.534;2022-11-14T14:53:33;7.60;1.00
53802;DHT22;39709;53.334;6.534;2022-11-14T14:56:16;7.50;1.00
53802;DHT22;39709;53.334;6.534;2022-11-14T14:58:42;7.50;1.00
53802;DHT22;39709;53.334;6.534;2022-11-14T15:01:16;7.40;1.00
53802;DHT22;39709;53.334;6.534;2022-11-14T15:03:52;7.40;1.00
53802;DHT22;39709;53.334;6.534;2022-11-14T15:06:36;7.30;1.00
53802;DHT22;39709;53.334;6.534;2022-11-14T15:09:09;7.30;1.00
53802;DHT22;39709;53.334;6.534;2022-11-14T15:11:38;7.20;1.00
53802;DHT22;39709;53.334;6.534;2022-11-14T15:14:05;7.20;8.90
53802;DHT22;39709;53.334;6.534;2022-11-14T15:16:35;7.20;32.40
53802;DHT22;39709;53.334;6.534;2022-11-14T15:19:01;7.20;54.80
53802;DHT22;39709;53.334;6.534;2022-11-14T15:21:28;7.20;93.60
53802;DHT22;39709;53.334;6.534;2022-11-14T15:24:00;7.10;47.90
53802;DHT22;39709;53.334;6.534;2022-11-14T15:26:28;7.10;41.30
53802;DHT22;39709;53.334;6.534;2022-11-14T15:29:26;7.10;92.10
53802;DHT22;39709;53.334;6.534;2022-11-14T15:31:57;7.10;73.10
53802;DHT22;39709;53.334;6.534;2022-11-14T15:37:23;7.30;99.90
53802;DHT22;39709;53.334;6.534;2022-11-14T15:39:49;6.90;94.10
53802;DHT22;39709;53.334;6.534;2022-11-14T15:44:41;6.90;99.90
53802;DHT22;39709;53.334;6.534;2022-11-14T15:47:27;6.80;83.80
53802;DHT22;39709;53.334;6.534;2022-11-14T15:49:57;6.90;99.90
53802;DHT22;39709;53.334;6.534;2022-11-14T15:52:31;6.80;99.90
53802;DHT22;39709;53.334;6.534;2022-11-14T15:54:58;6.50;81.90
53802;DHT22;39709;53.334;6.534;2022-11-14T15:57:24;6.50;47.80
53802;DHT22;39709;53.334;6.534;2022-11-14T15:59:49;6.30;47.50
53802;DHT22;39709;53.334;6.534;2022-11-14T16:04:43;6.20;67.90
53802;DHT22;39709;53.334;6.534;2022-11-14T16:07:13;6.00;81.70
53802;DHT22;39709;53.334;6.534;2022-11-14T16:09:39;6.20;87.90
53802;DHT22;39709;53.334;6.534;2022-11-14T16:12:05;6.10;91.50
53802;DHT22;39709;53.334;6.534;2022-11-14T16:14:31;6.20;92.20
53802;DHT22;39709;53.334;6.534;2022-11-14T16:16:57;6.20;90.90
53802;DHT22;39709;53.334;6.534;2022-11-14T16:19:23;6.30;88.40
53802;DHT22;39709;53.334;6.534;2022-11-14T16:21:48;6.40;81.10
53802;DHT22;39709;53.334;6.534;2022-11-14T16:24:20;6.40;90.10
53802;DHT22;39709;53.334;6.534;2022-11-14T16:26:46;6.40;92.40
53802;DHT22;39709;53.334;6.534;2022-11-14T16:29:12;6.30;93.80
53802;DHT22;39709;53.334;6.534;2022-11-14T16:31:38;6.40;96.60
53802;DHT22;39709;53.334;6.534;2022-11-14T16:34:05;6.50;95.90
53802;DHT22;39709;53.334;6.534;2022-11-14T16:36:31;6.40;96.30
53802;DHT22;39709;53.334;6.534;2022-11-14T16:38:59;6.50;96.40
53802;DHT22;39709;53.334;6.534;2022-11-14T16:41:28;6.50;97.50
53802;DHT22;39709;53.334;6.534;2022-11-14T16:43:54;6.60;99.90
53802;DHT22;39709;53.334;6.534;2022-11-14T16:46:21;6.70;90.60
53802;DHT22;39709;53.334;6.534;2022-11-14T16:48:47;6.70;88.00
53802;DHT22;39709;53.334;6.534;2022-11-14T16:51:13;6.70;87.50
53802;DHT22;39709;53.334;6.534;2022-11-14T16:53:39;6.70;89.90
53802;DHT22;39709;53.334;6.534;2022-11-14T16:56:05;6.80;88.30
53802;DHT22;39709;53.334;6.534;2022-11-14T16:58:31;6.80;86.20
53802;DHT22;39709;53.334;6.534;2022-11-14T17:00:56;6.90;99.90
53802;DHT22;39709;53.334;6.534;2022-11-14T17:03:23;6.90;81.90
53802;DHT22;39709;53.334;6.534;2022-11-14T17:05:50;7.00;99.90
53802;DHT22;39709;53.334;6.534;2022-11-14T17:08:16;7.20;99.90
53802;DHT22;39709;53.334;6.534;2022-11-14T17:10:43;7.10;99.90
53802;DHT22;39709;53.334;6.534;2022-11-14T17:13:10;7.30;99.90
53802;DHT22;39709;53.334;6.534;2022-11-14T17:15:36;7.40;99.90
53802;DHT22;39709;53.334;6.534;2022-11-14T17:18:02;7.40;99.90
53802;DHT22;39709;53.334;6.534;2022-11-14T17:20:28;7.40;99.90
53802;DHT22;39709;53.334;6.534;2022-11-14T17:22:54;7.80;99.90
53802;DHT22;39709;53.334;6.534;2022-11-14T17:25:20;7.80;99.90
53802;DHT22;39709;53.334;6.534;2022-11-14T17:27:46;7.80;99.90
53802;DHT22;39709;53.334;6.534;2022-11-14T17:30:17;8.10;99.90
53802;DHT22;39709;53.334;6.534;2022-11-14T17:32:43;7.90;99.90
53802;DHT22;39709;53.334;6.534;2022-11-14T17:35:09;8.10;99.90
53802;DHT22;39709;53.334;6.534;2022-11-14T17:37:35;8.00;99.90
53802;DHT22;39709;53.334;6.534;2022-11-14T17:40:01;8.10;99.90
53802;DHT22;39709;53.334;6.534;2022-11-14T17:42:27;7.80;99.90
53802;DHT22;39709;53.334;6.534;2022-11-14T17:44:53;7.80;99.90
53802;DHT22;39709;53.334;6.534;2022-11-14T17:47:19;7.80;99.90
53802;DHT22;39709;53.334;6.534;2022-11-14T17:49:45;8.00;99.90
53802;DHT22;39709;53.334;6.534;2022-11-14T17:52:10;7.80;99.90
53802;DHT22;39709;53.334;6.534;2022-11-14T17:54:36;7.90;99.90
53802;DHT22;39709;53.334;6.534;2022-11-14T17:57:05;8.00;99.90
53802;DHT22;39709;53.334;6.534;2022-11-14T17:59:31;8.00;99.90